Ko Lanta, Thailand

8:50 AM ICT on September 02, 2014 (GMT +0700)
Krabi | Change Station
CLOSE
Current Station
Airport
Location: Krabi,
Elevation: 82 ft
Nearby Weather Stations

Elev 82 ft 8.10 °N, 98.99 °E | Updated 50 minutes ago

Mostly Cloudy
Mostly Cloudy
79 °F
Feels Like 79 °F
N
0
Wind Variable Wind from North

Today
High -- | Low -- °F
--% Chance of Precip.
Yesterday
High -- | Low -- °F
Precip. -- in
6:16 AM 6:31 PM
Waxing Crescent, 46% visible
Pressure 29.86 in
Visibility 3.1 miles
Clouds Few 2000 ft
Mostly Cloudy 12000 ft
Dew Point 77 °F
Humidity 94%
Rainfall 0.00 in
Snow Depth Not available.
UV 1 out of 12
Pollen Not available.
Air Quality Not available.
Flu Activity Not available.
METAR VTSG 020100Z 00000KT 5000 BR FEW020 BKN120 26/25 Q1011 A2986 INFO T RWY32

More Conditions Fewer Conditions

Pressure 29.86 in
Visibility 3.1 miles
Clouds Few 2000 ft
Mostly Cloudy 12000 ft
Dew Point 77 °F
Humidity 94%
Rainfall 0.00 in
Snow Depth Not available.
UV 1 out of 12
Pollen Not available.
Air Quality Not available.
Flu Activity Not available.
METAR VTSG 020100Z 00000KT 5000 BR FEW020 BKN120 26/25 Q1011 A2986 INFO T RWY32

More Conditions Fewer Conditions

10-Day Weather Forecast

Almanac

Astronomy

Sep. 02, 2014 Rise Set
Actual Time 6:16 AM ICT 6:31 PM ICT
Civil Twilight 5:54 AM ICT 6:52 PM ICT
Nautical Twilight 5:30 AM ICT 7:16 PM ICT
Astronomical Twilight 5:05 AM ICT 7:41 PM ICT
Moon 12:10 PM ICT No Moon Set
Length of Visible Light 12h 57m
Length of Day
12h 15m
Tomorrow will be 0m 25s shorter.
Waxing Crescent, 46% of the Moon is Illuminated
Sep 1
Waxing Crescent
Sep 2
First Quarter
Sep 8
Full
Sep 15
Last Quarter
Sep 24
New

Yesterday's Extremes

Country Highs Country Lows

Community

WunderPhotos

Upload Photos

1,749,476 photos uploaded!

Nearby

Snow Depth

Not available.

Earthquake Activity

City Distance Mag. Time & Date
No recent earthquake activity has been reported nearby.
Minimum magnitude displayed is 2.5.

Coastal Water Temperatures

Place Temperature
No Stations Reporting

Nearby Weather Stations